Time;durP1;ratioP1;P1;durP2;ratioP2;P2;SDS_P1;SDS_P2;PMS_P1;PMS_P2;Temp;Humidity;BMP_temperature;BMP_pressure;BME280_temperature;BME280_humidity;BME280_pressure;Samples;Min_cycle;Max_cycle;Signal;HPM_P1;HPM_P2
2023/06/03 00:01:42;;;;;;;1.10;1.10;;;16.70;99.90;;;;;;5050578;28;20227;-64
2023/06/03 00:04:11;;;;;;;1.35;1.27;;;16.60;99.90;;;;;;5052245;28;20210;-65
2023/06/03 00:06:37;;;;;;;1.20;1.20;;;16.60;99.90;;;;;;5069130;28;20302;-64
2023/06/03 00:09:06;;;;;;;1.17;1.17;;;16.70;99.90;;;;;;5071840;28;20310;-63
2023/06/03 00:11:35;;;;;;;1.15;1.15;;;16.60;99.90;;;;;;5070926;28;20223;-63
2023/06/03 00:14:02;;;;;;;1.00;1.00;;;16.50;99.90;;;;;;5071245;28;20207;-63
2023/06/03 00:16:29;;;;;;;1.33;1.30;;;16.50;99.90;;;;;;5071081;28;20207;-63
2023/06/03 00:18:56;;;;;;;1.23;1.23;;;16.50;99.90;;;;;;5070823;28;20692;-63
2023/06/03 00:21:23;;;;;;;1.20;1.20;;;16.50;99.90;;;;;;5070168;28;20223;-63
2023/06/03 00:23:50;;;;;;;1.17;1.17;;;16.50;99.90;;;;;;5072228;28;20215;-63
2023/06/03 00:26:18;;;;;;;1.20;1.20;;;16.40;99.90;;;;;;5075619;28;20197;-63
2023/06/03 00:28:45;;;;;;;1.30;1.30;;;16.50;99.90;;;;;;5075167;28;20587;-63
2023/06/03 00:31:12;;;;;;;1.30;1.30;;;16.70;99.90;;;;;;5080296;28;20231;-63
2023/06/03 00:33:39;;;;;;;1.27;1.27;;;16.40;99.90;;;;;;5076861;28;20592;-63
2023/06/03 00:36:06;;;;;;;1.23;1.20;;;16.30;99.90;;;;;;5077152;28;20301;-63
2023/06/03 00:38:33;;;;;;;1.10;1.10;;;16.30;99.90;;;;;;5075476;28;20753;-63
2023/06/03 00:41:00;;;;;;;1.10;1.10;;;16.30;99.90;;;;;;5074511;28;20227;-62
2023/06/03 00:43:28;;;;;;;1.33;1.23;;;16.30;99.90;;;;;;5075390;28;20209;-63
2023/06/03 00:45:55;;;;;;;1.50;1.40;;;16.20;99.90;;;;;;5079811;28;20305;-64
2023/06/03 00:48:23;;;;;;;1.30;1.20;;;16.10;99.90;;;;;;5079297;28;20507;-64
2023/06/03 00:50:50;;;;;;;1.13;1.13;;;16.10;99.90;;;;;;5075089;28;20231;-63
2023/06/03 00:53:16;;;;;;;1.00;1.00;;;16.10;99.90;;;;;;5075225;28;20250;-63
2023/06/03 00:55:43;;;;;;;1.27;1.27;;;16.10;99.90;;;;;;5075057;28;20195;-63
2023/06/03 00:58:11;;;;;;;1.27;1.27;;;16.00;99.90;;;;;;5074690;28;20203;-64
2023/06/03 01:00:39;;;;;;;1.20;1.20;;;16.00;99.90;;;;;;5073958;28;20571;-62
2023/06/03 01:03:13;;;;;;;1.35;1.25;;;16.00;99.90;;;;;;5074812;28;20200;-63
2023/06/03 01:05:40;;;;;;;1.38;1.30;;;16.20;99.90;;;;;;5074303;28;20191;-63
2023/06/03 01:08:20;;;;;;;1.40;1.30;;;16.00;99.90;;;;;;5074484;28;20306;-62
2023/06/03 01:10:53;;;;;;;1.23;1.23;;;16.00;99.90;;;;;;5077846;28;20239;-62
2023/06/03 01:13:27;;;;;;;1.10;1.10;;;16.00;99.90;;;;;;5091063;28;20222;-64
2023/06/03 01:16:00;;;;;;;1.15;1.15;;;16.00;99.90;;;;;;5074503;28;20191;-64
2023/06/03 01:18:28;;;;;;;1.23;1.20;;;15.90;99.90;;;;;;5073958;28;20191;-63
2023/06/03 01:21:00;;;;;;;1.25;1.15;;;15.80;99.90;;;;;;5072951;28;20219;-62
2023/06/03 01:23:33;;;;;;;1.20;1.20;;;15.70;99.90;;;;;;5073495;28;20229;-62
2023/06/03 01:26:02;;;;;;;1.30;1.30;;;15.50;99.90;;;;;;5069875;28;20184;-62
2023/06/03 01:28:29;;;;;;;1.27;1.27;;;15.50;99.90;;;;;;5074622;28;20231;-62
2023/06/03 01:30:57;;;;;;;1.50;1.40;;;15.50;99.90;;;;;;5072835;28;20231;-62
2023/06/03 01:33:26;;;;;;;1.23;1.20;;;15.50;99.90;;;;;;5073779;28;20207;-62
2023/06/03 01:35:54;;;;;;;1.30;1.20;;;15.50;99.90;;;;;;5073633;28;20206;-62
2023/06/03 01:38:22;;;;;;;1.20;1.20;;;15.50;99.90;;;;;;5073894;28;20676;-63
2023/06/03 01:40:53;;;;;;;1.35;1.33;;;15.60;99.90;;;;;;5072985;28;20230;-63
2023/06/03 01:43:20;;;;;;;1.50;1.40;;;15.60;99.90;;;;;;5078472;28;20207;-63
2023/06/03 01:45:47;;;;;;;1.10;1.10;;;15.70;99.90;;;;;;5077819;28;20258;-64
2023/06/03 01:48:15;;;;;;;1.27;1.20;;;15.50;99.90;;;;;;5073392;28;20219;-63
2023/06/03 01:50:42;;;;;;;1.40;1.30;;;15.60;99.90;;;;;;5072552;28;20227;-62
2023/06/03 01:53:09;;;;;;;1.30;1.30;;;15.60;99.90;;;;;;5073871;28;20643;-63
2023/06/03 01:55:36;;;;;;;1.35;1.30;;;15.60;99.90;;;;;;5073637;28;20206;-64
2023/06/03 01:58:04;;;;;;;1.23;1.23;;;15.50;99.90;;;;;;5073267;28;20731;-62
2023/06/03 02:00:31;;;;;;;1.20;1.20;;;15.50;99.90;;;;;;5072668;28;20230;-62
2023/06/03 02:02:58;;;;;;;1.38;1.38;;;15.50;99.90;;;;;;5073297;28;20345;-63
2023/06/03 02:05:25;;;;;;;1.33;1.30;;;15.50;99.90;;;;;;5073378;28;20203;-62
2023/06/03 02:07:52;;;;;;;1.25;1.25;;;15.50;99.90;;;;;;5074406;28;20318;-63
2023/06/03 02:10:19;;;;;;;1.50;1.40;;;15.40;99.90;;;;;;5075395;28;20219;-62
2023/06/03 02:12:46;;;;;;;1.40;1.30;;;15.40;99.90;;;;;;5074669;28;20207;-62
2023/06/03 02:15:14;;;;;;;1.25;1.20;;;15.40;99.90;;;;;;5073474;28;20745;-63
2023/06/03 02:17:41;;;;;;;1.23;1.23;;;15.50;99.90;;;;;;5073287;28;20210;-62
2023/06/03 02:20:10;;;;;;;1.25;1.25;;;15.50;99.90;;;;;;5072407;28;20227;-63
2023/06/03 02:22:38;;;;;;;1.20;1.20;;;15.50;99.90;;;;;;5072711;28;20211;-68
2023/06/03 02:25:06;;;;;;;1.10;1.10;;;15.40;99.90;;;;;;5072841;28;20214;-64
2023/06/03 02:27:33;;;;;;;1.50;1.40;;;15.40;99.90;;;;;;5072713;28;20207;-65
2023/06/03 02:30:00;;;;;;;1.30;1.30;;;15.40;99.90;;;;;;5072183;28;20254;-64
2023/06/03 02:32:28;;;;;;;1.10;1.10;;;15.40;99.90;;;;;;5072629;28;20208;-64
2023/06/03 02:34:55;;;;;;;1.30;1.30;;;15.40;99.90;;;;;;5072783;28;20238;-65
2023/06/03 02:37:22;;;;;;;1.48;1.38;;;15.50;99.90;;;;;;5073040;28;20310;-67
2023/06/03 02:39:49;;;;;;;1.27;1.27;;;15.40;99.90;;;;;;5072126;28;20203;-64
2023/06/03 02:42:16;;;;;;;1.20;1.20;;;15.60;99.90;;;;;;5072967;28;20290;-66
2023/06/03 02:44:42;;;;;;;1.40;1.30;;;15.30;99.90;;;;;;5072714;28;20301;-66
2023/06/03 02:47:09;;;;;;;1.20;1.20;;;15.30;99.90;;;;;;5072306;28;20307;-65
2023/06/03 02:49:37;;;;;;;1.35;1.35;;;15.30;99.90;;;;;;5072131;28;20224;-66
2023/06/03 02:52:05;;;;;;;1.30;1.30;;;15.20;99.90;;;;;;5073110;28;20246;-66
2023/06/03 02:54:32;;;;;;;2.28;1.27;;;15.20;99.90;;;;;;5073451;28;20670;-65
2023/06/03 02:56:58;;;;;;;1.20;1.20;;;15.10;99.90;;;;;;5073256;28;20211;-65
2023/06/03 02:59:25;;;;;;;1.23;1.23;;;15.10;99.90;;;;;;5074666;28;20213;-66
2023/06/03 03:01:52;;;;;;;1.20;1.20;;;15.00;99.90;;;;;;5075345;28;20784;-66
2023/06/03 03:04:20;;;;;;;1.30;1.20;;;15.00;99.90;;;;;;5075202;28;20214;-64
2023/06/03 03:06:50;;;;;;;1.40;1.30;;;15.00;99.90;;;;;;5076933;28;20211;-67
2023/06/03 03:09:17;;;;;;;1.35;1.35;;;15.00;99.90;;;;;;5080316;28;20207;-66
2023/06/03 03:11:44;;;;;;;1.35;1.30;;;15.00;99.90;;;;;;5080661;28;20683;-64
2023/06/03 03:14:10;;;;;;;1.17;1.17;;;14.90;99.90;;;;;;5079773;28;20293;-67
2023/06/03 03:16:38;;;;;;;1.45;1.35;;;14.90;99.90;;;;;;5080584;28;20266;-65
2023/06/03 03:19:05;;;;;;;1.30;1.20;;;15.00;99.90;;;;;;5078777;28;20256;-65
2023/06/03 03:21:33;;;;;;;1.40;1.30;;;15.00;99.90;;;;;;5074600;28;20352;-65
2023/06/03 03:24:01;;;;;;;1.20;1.20;;;15.00;99.90;;;;;;5073024;28;20330;-66
2023/06/03 03:26:29;;;;;;;1.30;1.30;;;15.00;99.90;;;;;;5072860;28;20203;-65
2023/06/03 03:28:57;;;;;;;1.48;1.38;;;15.00;99.90;;;;;;5078833;28;20223;-65
2023/06/03 03:31:24;;;;;;;1.40;1.30;;;15.00;99.90;;;;;;5078789;28;20255;-65
2023/06/03 03:33:51;;;;;;;1.52;1.42;;;15.00;99.90;;;;;;5074166;28;20210;-66
2023/06/03 03:36:22;;;;;;;1.20;1.20;;;14.90;99.90;;;;;;5074971;28;20250;-65
2023/06/03 03:38:54;;;;;;;1.70;1.60;;;14.90;99.90;;;;;;5074164;28;20191;-67
2023/06/03 03:41:22;;;;;;;1.30;1.20;;;14.90;99.90;;;;;;5073237;28;20227;-64
2023/06/03 03:43:51;;;;;;;1.63;1.52;;;14.90;99.90;;;;;;5077818;28;20202;-65
2023/06/03 03:46:18;;;;;;;1.15;1.15;;;14.90;99.90;;;;;;5086847;28;20221;-67
2023/06/03 03:48:45;;;;;;;1.60;1.50;;;14.80;99.90;;;;;;5086608;28;20255;-66
2023/06/03 03:51:13;;;;;;;1.58;1.48;;;14.80;99.90;;;;;;5083886;28;20231;-65
2023/06/03 03:53:45;;;;;;;1.50;1.40;;;14.80;99.90;;;;;;5074986;28;20200;-67
2023/06/03 03:56:16;;;;;;;1.63;1.20;;;14.80;99.90;;;;;;5072228;28;20195;-64
2023/06/03 03:58:46;;;;;;;1.38;1.30;;;14.90;99.90;;;;;;5072880;28;20203;-68
2023/06/03 04:01:15;;;;;;;1.45;1.35;;;14.90;99.90;;;;;;5076532;28;20255;-65
2023/06/03 04:03:45;;;;;;;1.50;1.40;;;15.00;99.90;;;;;;5077795;28;20250;-66
2023/06/03 04:06:14;;;;;;;1.50;1.40;;;15.00;99.90;;;;;;5077613;28;20565;-66
2023/06/03 04:08:45;;;;;;;1.40;1.30;;;15.10;99.90;;;;;;5083924;28;20233;-65
2023/06/03 04:11:19;;;;;;;1.27;1.27;;;15.20;99.90;;;;;;5092919;28;20298;-65
2023/06/03 04:13:47;;;;;;;1.40;1.30;;;15.10;99.90;;;;;;5094100;28;20215;-65
2023/06/03 04:16:49;;;;;;;1.20;1.20;;;15.10;99.90;;;;;;5092981;28;20227;-65
2023/06/03 04:19:20;;;;;;;1.20;1.20;;;15.00;99.90;;;;;;5091243;28;20230;-66
2023/06/03 04:21:47;;;;;;;1.38;1.27;;;15.10;99.90;;;;;;5089816;28;20233;-66
2023/06/03 04:24:14;;;;;;;1.20;1.20;;;15.10;99.90;;;;;;5078427;28;20207;-64
2023/06/03 04:26:41;;;;;;;1.25;1.25;;;15.10;99.90;;;;;;5077589;28;20302;-65
2023/06/03 04:29:09;;;;;;;1.10;1.10;;;15.10;99.90;;;;;;5075794;28;20724;-65
2023/06/03 04:31:36;;;;;;;1.60;1.50;;;15.20;99.90;;;;;;5076880;28;20768;-65
2023/06/03 04:34:03;;;;;;;1.52;1.42;;;15.20;99.90;;;;;;5077021;28;20211;-67
2023/06/03 04:36:30;;;;;;;1.50;1.40;;;15.10;99.90;;;;;;5076642;28;20203;-64
2023/06/03 04:38:58;;;;;;;1.45;1.35;;;15.10;99.90;;;;;;5077290;28;20293;-64
2023/06/03 04:41:27;;;;;;;1.45;1.35;;;15.10;99.90;;;;;;5077473;28;20227;-65
2023/06/03 04:43:54;;;;;;;1.60;1.50;;;15.20;99.90;;;;;;5076189;28;20235;-65
2023/06/03 04:46:29;;;;;;;1.55;1.48;;;15.10;99.90;;;;;;5075226;28;20226;-64
2023/06/03 04:48:57;;;;;;;1.63;1.50;;;15.20;99.90;;;;;;5074788;28;20321;-65
2023/06/03 04:51:27;;;;;;;1.60;1.50;;;15.10;99.90;;;;;;5074207;28;20258;-65
2023/06/03 04:53:55;;;;;;;1.63;1.52;;;15.20;99.90;;;;;;5074432;28;20203;-64
2023/06/03 04:56:24;;;;;;;1.58;1.48;;;15.10;99.90;;;;;;5074774;28;20230;-64
2023/06/03 04:58:54;;;;;;;1.60;1.50;;;15.10;99.90;;;;;;5074694;28;20211;-64
2023/06/03 05:01:23;;;;;;;1.60;1.50;;;15.20;99.90;;;;;;5073470;28;20235;-64
2023/06/03 05:03:50;;;;;;;1.80;1.70;;;15.20;99.90;;;;;;5074488;28;20207;-64
2023/06/03 05:06:17;;;;;;;1.85;1.65;;;15.10;99.90;;;;;;5074262;28;20739;-64
2023/06/03 05:08:44;;;;;;;1.70;1.55;;;15.20;99.90;;;;;;5074181;28;20323;-64
2023/06/03 05:11:11;;;;;;;1.85;1.75;;;15.20;99.90;;;;;;5073091;28;20310;-64
2023/06/03 05:13:37;;;;;;;1.98;1.73;;;15.30;99.90;;;;;;5074293;28;20207;-64
2023/06/03 05:16:05;;;;;;;1.65;1.55;;;15.40;99.90;;;;;;5074551;28;20580;-65
2023/06/03 05:18:35;;;;;;;1.70;1.60;;;15.50;99.90;;;;;;5074624;28;20242;-64
2023/06/03 05:21:02;;;;;;;1.70;1.60;;;15.70;99.90;;;;;;5075335;28;20231;-64
2023/06/03 05:23:29;;;;;;;1.70;1.60;;;15.90;99.90;;;;;;5076687;28;20244;-65
2023/06/03 05:25:56;;;;;;;1.85;1.35;;;16.10;99.90;;;;;;5074900;28;20239;-64
2023/06/03 05:28:22;;;;;;;1.60;1.50;;;16.20;99.90;;;;;;5074204;28;20203;-64
2023/06/03 05:30:49;;;;;;;1.80;1.70;;;16.30;99.90;;;;;;5073487;28;20314;-65
2023/06/03 05:33:27;;;;;;;1.70;1.60;;;16.50;99.90;;;;;;5074669;28;20261;-66
2023/06/03 05:35:55;;;;;;;2.60;1.60;;;16.90;99.90;;;;;;5074847;28;20215;-65
2023/06/03 05:38:22;;;;;;;1.70;1.60;;;16.80;99.90;;;;;;5075122;28;20576;-64
2023/06/03 05:40:50;;;;;;;1.30;1.30;;;16.90;99.90;;;;;;5077770;28;20220;-64
2023/06/03 05:43:16;;;;;;;1.90;1.80;;;17.10;99.90;;;;;;5076538;28;20253;-65
2023/06/03 05:45:43;;;;;;;2.13;2.03;;;17.30;99.90;;;;;;5076202;28;20298;-65
2023/06/03 05:48:11;;;;;;;2.08;1.98;;;17.30;99.90;;;;;;5076189;28;20193;-65
2023/06/03 05:50:39;;;;;;;2.20;2.10;;;17.30;99.90;;;;;;5075986;28;20227;-67
2023/06/03 05:53:07;;;;;;;1.77;1.67;;;17.20;99.90;;;;;;5084203;28;20209;-66
2023/06/03 05:55:34;;;;;;;2.20;2.00;;;17.30;99.90;;;;;;5083023;28;20298;-65
2023/06/03 05:58:01;;;;;;;2.00;1.90;;;17.30;99.90;;;;;;5073870;28;20749;-66
2023/06/03 06:00:28;;;;;;;1.67;1.58;;;17.40;99.90;;;;;;5072555;28;20223;-66
2023/06/03 06:02:54;;;;;;;1.88;1.77;;;17.50;99.90;;;;;;5073230;28;20666;-65
2023/06/03 06:05:21;;;;;;;1.80;1.70;;;17.60;99.90;;;;;;5073259;28;20203;-65
2023/06/03 06:07:48;;;;;;;1.77;1.63;;;17.70;99.90;;;;;;5073554;28;20207;-65
2023/06/03 06:10:16;;;;;;;1.83;1.73;;;17.80;99.90;;;;;;5072140;28;20234;-66
2023/06/03 06:12:43;;;;;;;2.22;2.03;;;17.80;99.90;;;;;;5072506;28;20211;-65
2023/06/03 06:15:11;;;;;;;1.70;1.60;;;17.90;99.90;;;;;;5072632;28;20231;-64
2023/06/03 06:17:38;;;;;;;1.40;1.30;;;18.00;99.90;;;;;;5072791;28;20252;-65
2023/06/03 06:20:06;;;;;;;1.73;1.63;;;18.10;99.90;;;;;;5072246;28;20648;-65
2023/06/03 06:22:33;;;;;;;1.70;1.60;;;18.20;99.90;;;;;;5072261;28;20577;-65
2023/06/03 06:25:00;;;;;;;1.92;1.75;;;18.10;99.90;;;;;;5073112;28;20298;-65
2023/06/03 06:27:29;;;;;;;2.17;1.98;;;18.20;99.90;;;;;;5072459;28;20234;-64
2023/06/03 06:29:56;;;;;;;1.65;1.55;;;18.20;99.90;;;;;;5072077;28;20223;-66
2023/06/03 06:32:25;;;;;;;2.20;2.00;;;18.30;99.90;;;;;;5068731;28;20210;-64
2023/06/03 06:34:52;;;;;;;2.53;2.08;;;18.40;99.90;;;;;;5066621;28;20229;-66
2023/06/03 06:37:20;;;;;;;1.65;1.55;;;18.40;99.90;;;;;;5072592;28;20200;-65
2023/06/03 06:39:49;;;;;;;2.03;1.88;;;18.40;99.90;;;;;;5072849;28;20202;-66
2023/06/03 06:42:29;;;;;;;2.00;1.90;;;18.50;99.90;;;;;;5073051;28;20230;-64
2023/06/03 06:44:57;;;;;;;2.20;1.70;;;18.50;99.90;;;;;;5072381;28;20245;-66
2023/06/03 06:47:25;;;;;;;1.90;1.80;;;18.60;99.90;;;;;;5072069;28;20732;-65
2023/06/03 06:49:55;;;;;;;2.33;2.10;;;18.70;99.90;;;;;;5069246;28;20223;-63
2023/06/03 06:52:22;;;;;;;2.15;1.80;;;18.80;99.90;;;;;;5052808;28;20650;-65
2023/06/03 06:54:50;;;;;;;1.80;1.70;;;18.90;99.90;;;;;;5052782;28;20208;-65
2023/06/03 06:57:21;;;;;;;2.22;1.67;;;19.10;99.90;;;;;;5070844;28;20241;-65
2023/06/03 06:59:48;;;;;;;1.90;1.73;;;19.10;99.90;;;;;;5071887;28;20640;-65
2023/06/03 07:02:16;;;;;;;1.85;1.58;;;19.10;99.90;;;;;;5065878;28;20207;-65
2023/06/03 07:04:43;;;;;;;1.70;1.60;;;18.90;99.90;;;;;;5077196;28;20688;-66
2023/06/03 07:07:10;;;;;;;2.08;1.90;;;19.00;99.90;;;;;;5080251;28;20287;-67
2023/06/03 07:09:37;;;;;;;2.35;2.13;;;19.30;99.90;;;;;;5071464;28;20229;-65
2023/06/03 07:12:05;;;;;;;3.00;1.80;;;19.40;99.90;;;;;;5072767;28;20221;-66
2023/06/03 07:14:32;;;;;;;1.60;1.50;;;19.60;99.90;;;;;;5073913;28;20203;-63
2023/06/03 07:16:59;;;;;;;2.10;1.80;;;19.70;99.90;;;;;;5073178;28;20290;-64
2023/06/03 07:19:35;;;;;;;1.77;1.67;;;19.90;99.90;;;;;;5072231;28;20294;-68
2023/06/03 07:22:01;;;;;;;1.63;1.52;;;19.70;99.90;;;;;;5071967;28;20233;-65
2023/06/03 07:24:28;;;;;;;1.80;1.70;;;19.80;99.90;;;;;;5070878;28;20199;-65
2023/06/03 07:26:55;;;;;;;2.15;1.70;;;19.80;99.90;;;;;;5069812;28;20207;-65
2023/06/03 07:29:22;;;;;;;1.95;1.73;;;19.90;99.90;;;;;;5064032;28;20203;-65
2023/06/03 07:31:49;;;;;;;1.75;1.65;;;20.00;99.90;;;;;;5071659;28;20559;-65
2023/06/03 07:34:21;;;;;;;1.65;1.55;;;20.10;99.90;;;;;;5071457;28;20211;-64
2023/06/03 07:36:52;;;;;;;4.03;2.05;;;20.00;99.90;;;;;;5071988;28;20627;-65
2023/06/03 07:39:21;;;;;;;1.90;1.70;;;20.00;99.90;;;;;;5071008;28;20195;-65
2023/06/03 07:41:51;;;;;;;2.03;1.83;;;20.00;99.90;;;;;;5071930;28;20720;-64
2023/06/03 07:44:26;;;;;;;1.80;1.70;;;20.00;99.90;;;;;;5072369;28;20633;-65
2023/06/03 07:46:56;;;;;;;1.60;1.50;;;20.10;99.90;;;;;;5071965;28;20207;-66
2023/06/03 07:49:23;;;;;;;1.60;1.50;;;20.30;99.90;;;;;;5071351;28;20199;-65
2023/06/03 07:51:52;;;;;;;2.00;1.80;;;20.30;99.90;;;;;;5071530;28;20593;-65
2023/06/03 07:54:20;;;;;;;1.80;1.70;;;20.30;99.90;;;;;;5073096;28;20290;-66
2023/06/03 07:56:48;;;;;;;1.70;1.60;;;20.20;99.90;;;;;;5072452;28;20207;-65
2023/06/03 07:59:16;;;;;;;1.80;1.70;;;20.30;99.90;;;;;;5070857;28;20226;-66
2023/06/03 08:01:43;;;;;;;1.70;1.60;;;20.40;99.90;;;;;;5072253;28;20226;-65
2023/06/03 08:04:28;;;;;;;1.90;1.80;;;20.50;99.90;;;;;;5072098;28;20238;-66
2023/06/03 08:06:56;;;;;;;2.10;1.73;;;20.70;99.90;;;;;;5072414;28;20191;-64
2023/06/03 08:09:28;;;;;;;1.83;1.73;;;20.70;99.90;;;;;;5071386;28;20211;-64
2023/06/03 08:11:55;;;;;;;2.08;1.80;;;20.70;99.90;;;;;;5073722;28;20235;-65
2023/06/03 08:14:23;;;;;;;1.73;1.63;;;20.90;99.90;;;;;;5072783;28;20675;-66
2023/06/03 08:16:51;;;;;;;3.78;1.88;;;21.00;99.90;;;;;;5072575;28;20203;-65
2023/06/03 08:19:18;;;;;;;2.00;1.90;;;21.00;99.90;;;;;;5070705;28;20670;-64
2023/06/03 08:21:45;;;;;;;1.52;1.42;;;21.00;99.90;;;;;;5075013;28;20223;-66
2023/06/03 08:24:14;;;;;;;1.80;1.70;;;21.20;99.90;;;;;;5073295;28;20252;-66
2023/06/03 08:26:41;;;;;;;1.75;1.65;;;21.20;99.90;;;;;;5071541;28;20204;-66
2023/06/03 08:29:08;;;;;;;2.53;2.00;;;21.30;99.90;;;;;;5070722;28;20203;-64
2023/06/03 08:31:34;;;;;;;1.88;1.77;;;21.40;99.90;;;;;;5077769;28;20294;-66
2023/06/03 08:34:02;;;;;;;1.77;1.67;;;21.40;99.90;;;;;;5071824;28;20251;-65
2023/06/03 08:36:29;;;;;;;1.83;1.73;;;21.30;99.90;;;;;;5072115;28;20207;-65
2023/06/03 08:38:56;;;;;;;1.85;1.75;;;21.30;99.90;;;;;;5072312;28;20239;-66
2023/06/03 08:41:26;;;;;;;2.35;1.70;;;21.40;99.90;;;;;;5071247;28;20218;-66
2023/06/03 08:44:02;;;;;;;2.22;2.05;;;21.50;99.90;;;;;;5071797;28;20207;-65
2023/06/03 08:46:35;;;;;;;2.17;1.98;;;21.70;99.90;;;;;;5075668;28;20567;-65
2023/06/03 08:49:07;;;;;;;2.33;2.00;;;21.70;99.90;;;;;;5075836;28;20210;-65
2023/06/03 08:51:41;;;;;;;2.05;1.90;;;21.50;99.90;;;;;;5076337;28;20227;-65
2023/06/03 08:54:13;;;;;;;1.67;1.58;;;21.40;99.90;;;;;;5075772;28;20279;-65
2023/06/03 08:56:43;;;;;;;3.38;2.75;;;21.60;99.90;;;;;;5075364;28;20192;-66
2023/06/03 08:59:15;;;;;;;2.00;1.70;;;21.60;99.90;;;;;;5074343;28;20199;-63
2023/06/03 09:01:44;;;;;;;2.10;1.92;;;21.70;99.90;;;;;;5074466;28;20245;-65
2023/06/03 09:04:14;;;;;;;2.10;1.90;;;21.90;99.90;;;;;;5074873;28;20209;-66
2023/06/03 09:06:43;;;;;;;1.90;1.80;;;21.80;99.90;;;;;;5074305;28;20235;-67
2023/06/03 09:09:11;;;;;;;1.70;1.60;;;21.80;99.90;;;;;;5061235;28;20206;-67
2023/06/03 09:11:39;;;;;;;1.73;1.63;;;21.90;99.90;;;;;;5059103;28;20232;-64
2023/06/03 09:14:08;;;;;;;1.80;1.70;;;22.00;99.90;;;;;;5059750;28;20597;-65
2023/06/03 09:16:35;;;;;;;1.80;1.58;;;22.20;99.90;;;;;;5053664;28;20294;-65
2023/06/03 09:19:02;;;;;;;1.83;1.70;;;22.30;99.90;;;;;;5053575;28;20208;-67
2023/06/03 09:21:30;;;;;;;2.33;2.22;;;22.40;99.90;;;;;;5054783;28;20245;-65
2023/06/03 09:23:56;;;;;;;1.80;1.70;;;22.50;99.90;;;;;;5054119;28;20204;-65
2023/06/03 09:26:23;;;;;;;2.75;1.88;;;22.40;99.90;;;;;;5054086;28;20200;-65
2023/06/03 09:28:50;;;;;;;2.10;1.83;;;22.60;99.90;;;;;;5068422;28;20207;-67
2023/06/03 09:31:19;;;;;;;1.90;1.65;;;22.60;99.90;;;;;;5073472;28;20238;-66
2023/06/03 09:33:47;;;;;;;2.72;2.53;;;22.70;99.90;;;;;;5072262;28;20207;-66
2023/06/03 09:36:15;;;;;;;2.10;1.90;;;22.70;99.90;;;;;;5070721;28;20207;-62
2023/06/03 09:38:50;;;;;;;2.10;1.70;;;22.70;99.90;;;;;;5071800;28;20199;-64
2023/06/03 09:41:18;;;;;;;3.38;2.15;;;22.90;99.90;;;;;;5072036;28;20229;-63
2023/06/03 09:43:55;;;;;;;4.15;3.95;;;22.90;99.90;;;;;;5073691;28;20306;-63
2023/06/03 09:46:25;;;;;;;2.67;1.90;;;23.00;99.90;;;;;;5073547;28;20653;-62
2023/06/03 09:48:52;;;;;;;1.88;1.70;;;23.00;99.90;;;;;;5072959;28;20666;-62
2023/06/03 09:51:19;;;;;;;2.20;2.00;;;23.00;99.90;;;;;;5072599;28;20223;-62
2023/06/03 09:53:46;;;;;;;2.65;2.10;;;23.20;99.90;;;;;;5073611;28;20637;-62
2023/06/03 09:56:24;;;;;;;1.88;1.77;;;23.40;99.90;;;;;;5071434;28;20259;-62
2023/06/03 09:59:12;;;;;;;1.90;1.80;;;23.30;99.90;;;;;;5072771;28;20286;-62
2023/06/03 10:01:40;;;;;;;2.50;2.20;;;23.30;99.90;;;;;;5073266;28;20230;-61
2023/06/03 10:04:07;;;;;;;3.03;2.83;;;23.30;99.90;;;;;;5071808;28;20204;-62
2023/06/03 10:06:35;;;;;;;2.15;2.03;;;23.30;99.90;;;;;;5076039;28;20203;-66
2023/06/03 10:09:18;;;;;;;2.17;1.83;;;23.30;99.90;;;;;;5078610;28;20286;-65
2023/06/03 10:11:49;;;;;;;4.07;3.88;;;23.20;99.90;;;;;;5073187;28;20234;-63
2023/06/03 10:14:17;;;;;;;2.88;2.70;;;23.30;99.90;;;;;;5055880;28;20290;-64
2023/06/03 10:17:03;;;;;;;1.60;1.50;;;23.40;99.90;;;;;;5056322;28;20204;-63
2023/06/03 10:19:33;;;;;;;2.05;1.95;;;23.60;99.90;;;;;;5065986;28;20199;-64
2023/06/03 10:22:00;;;;;;;3.17;2.03;;;23.80;99.90;;;;;;5076749;28;20227;-64
2023/06/03 10:24:28;;;;;;;6.05;5.57;;;24.00;99.90;;;;;;5075922;28;20226;-64
2023/06/03 10:26:56;;;;;;;3.95;2.13;;;24.00;99.90;;;;;;5075002;28;20207;-64
2023/06/03 10:29:24;;;;;;;2.88;2.05;;;23.90;99.90;;;;;;5073343;28;20911;-66
2023/06/03 10:31:54;;;;;;;1.70;1.60;;;24.00;99.90;;;;;;5076222;28;20267;-66
2023/06/03 10:34:21;;;;;;;1.70;1.60;;;24.20;99.90;;;;;;5074254;28;20692;-64
2023/06/03 10:36:51;;;;;;;3.55;3.35;;;24.30;99.90;;;;;;5074375;28;20748;-65
2023/06/03 10:39:18;;;;;;;3.42;3.22;;;24.20;99.90;;;;;;5073333;28;20215;-64
2023/06/03 10:41:46;;;;;;;2.60;2.50;;;24.20;99.90;;;;;;5071188;28;20226;-66
2023/06/03 10:44:12;;;;;;;2.40;2.10;;;24.10;99.90;;;;;;5072353;28;20290;-66
2023/06/03 10:46:50;;;;;;;1.98;1.88;;;24.20;99.90;;;;;;5072286;28;20237;-64
2023/06/03 10:49:21;;;;;;;1.70;1.60;;;24.60;99.90;;;;;;5071607;28;20213;-65
2023/06/03 10:52:00;;;;;;;1.80;1.70;;;24.60;99.90;;;;;;5072962;28;20732;-67
2023/06/03 10:54:35;;;;;;;2.28;2.08;;;24.70;99.90;;;;;;5072862;28;20230;-67
2023/06/03 10:57:06;;;;;;;1.95;1.70;;;25.00;99.90;;;;;;5072423;28;20202;-66
2023/06/03 10:59:42;;;;;;;1.60;1.50;;;25.00;99.90;;;;;;5068818;28;20219;-66
2023/06/03 11:02:09;;;;;;;2.63;2.42;;;25.10;99.90;;;;;;5070082;28;20647;-66
2023/06/03 11:04:39;;;;;;;2.00;1.80;;;25.10;99.90;;;;;;5071081;28;20234;-64
2023/06/03 11:07:07;;;;;;;1.75;1.65;;;25.10;99.90;;;;;;5070995;28;20219;-65
2023/06/03 11:09:37;;;;;;;1.60;1.50;;;25.00;99.90;;;;;;5070796;28;20214;-67
2023/06/03 11:12:06;;;;;;;3.65;3.45;;;25.20;99.90;;;;;;5070343;28;20326;-66
2023/06/03 11:14:56;;;;;;;3.83;3.60;;;25.40;99.90;;;;;;5071997;28;20222;-66
2023/06/03 11:17:27;;;;;;;1.95;1.70;;;25.50;99.90;;;;;;5070905;28;20210;-66
2023/06/03 11:19:57;;;;;;;1.95;1.75;;;25.20;99.90;;;;;;5071285;28;20245;-65
2023/06/03 11:22:49;;;;;;;2.00;1.70;;;25.20;99.90;;;;;;5071426;28;20203;-65
2023/06/03 11:25:29;;;;;;;6.07;5.78;;;25.20;99.90;;;;;;5071857;28;20188;-65
2023/06/03 11:28:29;;;;;;;3.70;1.73;;;25.20;99.90;;;;;;5071816;28;20234;-67
2023/06/03 11:30:57;;;;;;;1.70;1.60;;;25.20;99.90;;;;;;5068642;28;20227;-66
2023/06/03 11:33:24;;;;;;;1.80;1.70;;;25.30;99.90;;;;;;5072412;28;20215;-67
2023/06/03 11:35:52;;;;;;;1.85;1.70;;;25.40;99.90;;;;;;5072620;28;20287;-67
2023/06/03 11:38:38;;;;;;;2.00;1.77;;;25.60;99.90;;;;;;5071994;28;20207;-66
2023/06/03 11:41:05;;;;;;;1.88;1.77;;;25.80;99.90;;;;;;5070795;28;20697;-66
2023/06/03 11:43:32;;;;;;;1.83;1.73;;;25.80;99.90;;;;;;5071225;28;20207;-66
2023/06/03 11:46:06;;;;;;;2.10;1.90;;;25.80;99.90;;;;;;5071603;28;20677;-67
2023/06/03 11:48:37;;;;;;;2.55;2.35;;;25.90;99.90;;;;;;5071930;28;20648;-65
2023/06/03 11:51:06;;;;;;;1.80;1.70;;;26.00;99.90;;;;;;5071739;28;20276;-67
2023/06/03 11:53:34;;;;;;;3.08;2.00;;;26.00;99.90;;;;;;5071893;28;20256;-65
2023/06/03 11:56:06;;;;;;;11.02;10.40;;;26.20;99.90;;;;;;5071521;28;20199;-66
2023/06/03 11:58:33;;;;;;;3.53;3.38;;;26.10;99.90;;;;;;5072333;28;20203;-67
2023/06/03 12:01:07;;;;;;;2.13;2.03;;;25.90;99.90;;;;;;5071447;28;20225;-65
2023/06/03 12:03:35;;;;;;;1.85;1.75;;;25.90;99.90;;;;;;5072085;28;20256;-66
2023/06/03 12:06:04;;;;;;;1.80;1.70;;;26.00;99.90;;;;;;5072973;28;20207;-67
2023/06/03 12:08:48;;;;;;;1.90;1.73;;;26.10;99.90;;;;;;5072042;28;20203;-66
2023/06/03 12:11:26;;;;;;;8.32;7.95;;;26.30;99.90;;;;;;5070467;28;20254;-65
2023/06/03 12:13:53;;;;;;;2.00;1.60;;;26.00;99.90;;;;;;5071619;28;20214;-66
2023/06/03 12:16:28;;;;;;;1.63;1.52;;;26.10;99.90;;;;;;5071586;28;20210;-67
2023/06/03 12:18:55;;;;;;;1.70;1.60;;;26.10;99.90;;;;;;5071411;28;20205;-67
2023/06/03 12:21:23;;;;;;;1.65;1.55;;;26.30;99.90;;;;;;5073888;28;20222;-66
2023/06/03 12:23:51;;;;;;;1.63;1.52;;;26.40;99.90;;;;;;5065618;28;20199;-66
2023/06/03 12:26:18;;;;;;;2.05;1.80;;;26.60;99.90;;;;;;5065419;28;20207;-66
2023/06/03 12:28:46;;;;;;;1.80;1.70;;;26.80;99.90;;;;;;5075126;28;20207;-65
2023/06/03 12:31:14;;;;;;;1.65;1.55;;;26.60;99.90;;;;;;5074345;28;20215;-65
2023/06/03 12:33:41;;;;;;;1.70;1.60;;;26.40;99.90;;;;;;5068874;28;20215;-66
2023/06/03 12:36:09;;;;;;;2.75;2.55;;;26.50;99.90;;;;;;5062863;28;20211;-65
2023/06/03 12:38:54;;;;;;;2.55;2.35;;;26.60;99.90;;;;;;5076753;28;20848;-66
2023/06/03 12:41:21;;;;;;;4.38;4.07;;;26.60;99.90;;;;;;5066443;28;20219;-65
2023/06/03 12:43:50;;;;;;;1.80;1.70;;;26.70;99.90;;;;;;5072708;28;20267;-66
2023/06/03 12:46:18;;;;;;;4.07;3.78;;;26.60;99.90;;;;;;5060228;28;20718;-65
2023/06/03 12:48:45;;;;;;;1.80;1.70;;;26.60;99.90;;;;;;5077571;28;20692;-66
2023/06/03 12:51:23;;;;;;;1.83;1.60;;;26.80;99.90;;;;;;5067549;28;20234;-64
2023/06/03 12:53:50;;;;;;;7.00;6.63;;;27.00;99.90;;;;;;5058720;28;20590;-64
2023/06/03 12:56:18;;;;;;;2.13;2.00;;;27.00;99.90;;;;;;5076093;28;20623;-64
2023/06/03 12:58:45;;;;;;;1.85;1.73;;;27.00;99.90;;;;;;5080195;28;20210;-65